sensor_id;sensor_type;location;lat;lon;timestamp;P1;durP1;ratioP1;P2;durP2;ratioP2
12812;SDS011;6471;50.932;6.934;2023-07-22T00:02:21;3.43;;;2.73;;
12812;SDS011;6471;50.932;6.934;2023-07-22T00:04:48;2.87;;;2.53;;
12812;SDS011;6471;50.932;6.934;2023-07-22T00:07:14;2.87;;;2.50;;
12812;SDS011;6471;50.932;6.934;2023-07-22T00:09:40;3.33;;;2.80;;
12812;SDS011;6471;50.932;6.934;2023-07-22T00:12:07;2.87;;;2.47;;
12812;SDS011;6471;50.932;6.934;2023-07-22T00:14:33;2.87;;;2.57;;
12812;SDS011;6471;50.932;6.934;2023-07-22T00:16:59;3.23;;;2.73;;
12812;SDS011;6471;50.932;6.934;2023-07-22T00:19:25;3.07;;;2.50;;
12812;SDS011;6471;50.932;6.934;2023-07-22T00:21:51;3.80;;;2.70;;
12812;SDS011;6471;50.932;6.934;2023-07-22T00:24:17;3.83;;;2.80;;
12812;SDS011;6471;50.932;6.934;2023-07-22T00:26:43;3.17;;;2.60;;
12812;SDS011;6471;50.932;6.934;2023-07-22T00:29:09;3.20;;;2.60;;
12812;SDS011;6471;50.932;6.934;2023-07-22T00:31:36;3.13;;;2.70;;
12812;SDS011;6471;50.932;6.934;2023-07-22T00:34:02;4.00;;;2.90;;
12812;SDS011;6471;50.932;6.934;2023-07-22T00:36:28;3.40;;;2.87;;
12812;SDS011;6471;50.932;6.934;2023-07-22T00:38:54;3.60;;;2.70;;
12812;SDS011;6471;50.932;6.934;2023-07-22T00:41:20;3.17;;;2.67;;
12812;SDS011;6471;50.932;6.934;2023-07-22T00:43:46;3.23;;;2.70;;
12812;SDS011;6471;50.932;6.934;2023-07-22T00:46:12;3.30;;;2.40;;
12812;SDS011;6471;50.932;6.934;2023-07-22T00:48:39;3.00;;;2.67;;
12812;SDS011;6471;50.932;6.934;2023-07-22T00:51:05;4.00;;;2.90;;
12812;SDS011;6471;50.932;6.934;2023-07-22T00:53:31;4.17;;;2.90;;
12812;SDS011;6471;50.932;6.934;2023-07-22T00:55:57;3.60;;;2.73;;
12812;SDS011;6471;50.932;6.934;2023-07-22T00:58:23;4.57;;;3.50;;
12812;SDS011;6471;50.932;6.934;2023-07-22T01:00:49;3.97;;;2.90;;
12812;SDS011;6471;50.932;6.934;2023-07-22T01:03:15;4.37;;;3.10;;
12812;SDS011;6471;50.932;6.934;2023-07-22T01:05:43;3.50;;;2.83;;
12812;SDS011;6471;50.932;6.934;2023-07-22T01:08:09;3.87;;;2.87;;
12812;SDS011;6471;50.932;6.934;2023-07-22T01:10:35;3.73;;;2.83;;
12812;SDS011;6471;50.932;6.934;2023-07-22T01:13:01;3.20;;;2.80;;
12812;SDS011;6471;50.932;6.934;2023-07-22T01:15:27;3.43;;;2.93;;
12812;SDS011;6471;50.932;6.934;2023-07-22T01:17:54;3.40;;;2.70;;
12812;SDS011;6471;50.932;6.934;2023-07-22T01:20:21;3.40;;;2.80;;
12812;SDS011;6471;50.932;6.934;2023-07-22T01:22:54;3.00;;;2.60;;
12812;SDS011;6471;50.932;6.934;2023-07-22T01:25:21;3.67;;;2.73;;
12812;SDS011;6471;50.932;6.934;2023-07-22T01:27:47;3.27;;;2.57;;
12812;SDS011;6471;50.932;6.934;2023-07-22T01:30:14;3.93;;;2.97;;
12812;SDS011;6471;50.932;6.934;2023-07-22T01:32:40;4.10;;;2.83;;
12812;SDS011;6471;50.932;6.934;2023-07-22T01:35:06;2.80;;;2.50;;
12812;SDS011;6471;50.932;6.934;2023-07-22T01:37:32;3.50;;;2.80;;
12812;SDS011;6471;50.932;6.934;2023-07-22T01:39:59;4.03;;;3.17;;
12812;SDS011;6471;50.932;6.934;2023-07-22T01:42:25;3.83;;;2.80;;
12812;SDS011;6471;50.932;6.934;2023-07-22T01:44:51;3.20;;;2.87;;
12812;SDS011;6471;50.932;6.934;2023-07-22T01:47:17;3.70;;;2.90;;
12812;SDS011;6471;50.932;6.934;2023-07-22T01:49:43;3.83;;;3.13;;
12812;SDS011;6471;50.932;6.934;2023-07-22T01:52:10;5.17;;;3.90;;
12812;SDS011;6471;50.932;6.934;2023-07-22T01:54:36;3.80;;;3.10;;
12812;SDS011;6471;50.932;6.934;2023-07-22T01:57:02;3.63;;;3.03;;
12812;SDS011;6471;50.932;6.934;2023-07-22T01:59:28;4.40;;;3.63;;
12812;SDS011;6471;50.932;6.934;2023-07-22T02:01:54;3.67;;;3.07;;
12812;SDS011;6471;50.932;6.934;2023-07-22T02:04:20;3.73;;;3.20;;
12812;SDS011;6471;50.932;6.934;2023-07-22T02:06:46;3.87;;;3.00;;
12812;SDS011;6471;50.932;6.934;2023-07-22T02:09:13;3.77;;;3.27;;
12812;SDS011;6471;50.932;6.934;2023-07-22T02:11:41;3.63;;;3.27;;
12812;SDS011;6471;50.932;6.934;2023-07-22T02:14:07;4.23;;;3.50;;
12812;SDS011;6471;50.932;6.934;2023-07-22T02:16:37;3.50;;;3.10;;
12812;SDS011;6471;50.932;6.934;2023-07-22T02:19:03;4.17;;;3.10;;
12812;SDS011;6471;50.932;6.934;2023-07-22T02:21:29;4.70;;;3.17;;
12812;SDS011;6471;50.932;6.934;2023-07-22T02:23:55;4.43;;;3.73;;
12812;SDS011;6471;50.932;6.934;2023-07-22T02:26:21;4.40;;;3.50;;
12812;SDS011;6471;50.932;6.934;2023-07-22T02:28:47;3.83;;;3.10;;
12812;SDS011;6471;50.932;6.934;2023-07-22T02:31:13;5.03;;;3.77;;
12812;SDS011;6471;50.932;6.934;2023-07-22T02:33:39;4.27;;;3.43;;
12812;SDS011;6471;50.932;6.934;2023-07-22T02:36:05;3.87;;;3.30;;
12812;SDS011;6471;50.932;6.934;2023-07-22T02:38:32;4.83;;;3.50;;
12812;SDS011;6471;50.932;6.934;2023-07-22T02:41:02;4.73;;;3.80;;
12812;SDS011;6471;50.932;6.934;2023-07-22T02:43:28;4.53;;;3.43;;
12812;SDS011;6471;50.932;6.934;2023-07-22T02:45:54;3.87;;;3.23;;
12812;SDS011;6471;50.932;6.934;2023-07-22T02:48:20;3.80;;;3.23;;
12812;SDS011;6471;50.932;6.934;2023-07-22T02:50:47;3.93;;;3.47;;
12812;SDS011;6471;50.932;6.934;2023-07-22T02:53:13;4.30;;;3.40;;
12812;SDS011;6471;50.932;6.934;2023-07-22T02:55:39;4.17;;;3.17;;
12812;SDS011;6471;50.932;6.934;2023-07-22T02:58:05;3.83;;;3.30;;
12812;SDS011;6471;50.932;6.934;2023-07-22T03:00:31;4.60;;;3.50;;
12812;SDS011;6471;50.932;6.934;2023-07-22T03:02:57;4.33;;;3.07;;
12812;SDS011;6471;50.932;6.934;2023-07-22T03:05:29;4.50;;;3.27;;
12812;SDS011;6471;50.932;6.934;2023-07-22T03:07:56;4.10;;;3.30;;
12812;SDS011;6471;50.932;6.934;2023-07-22T03:10:22;4.87;;;3.87;;
12812;SDS011;6471;50.932;6.934;2023-07-22T03:12:48;4.73;;;3.57;;
12812;SDS011;6471;50.932;6.934;2023-07-22T03:15:14;4.73;;;3.60;;
12812;SDS011;6471;50.932;6.934;2023-07-22T03:17:40;3.97;;;3.23;;
12812;SDS011;6471;50.932;6.934;2023-07-22T03:20:09;4.90;;;3.67;;
12812;SDS011;6471;50.932;6.934;2023-07-22T03:22:39;4.67;;;3.60;;
12812;SDS011;6471;50.932;6.934;2023-07-22T03:25:05;4.00;;;3.60;;
12812;SDS011;6471;50.932;6.934;2023-07-22T03:27:34;4.40;;;3.40;;
12812;SDS011;6471;50.932;6.934;2023-07-22T03:30:01;4.73;;;3.33;;
12812;SDS011;6471;50.932;6.934;2023-07-22T03:32:27;3.33;;;3.00;;
12812;SDS011;6471;50.932;6.934;2023-07-22T03:34:53;4.20;;;3.27;;
12812;SDS011;6471;50.932;6.934;2023-07-22T03:37:19;3.60;;;3.17;;
12812;SDS011;6471;50.932;6.934;2023-07-22T03:39:45;3.40;;;2.83;;
12812;SDS011;6471;50.932;6.934;2023-07-22T03:42:11;3.50;;;3.03;;
12812;SDS011;6471;50.932;6.934;2023-07-22T03:44:37;3.73;;;3.27;;
12812;SDS011;6471;50.932;6.934;2023-07-22T03:47:05;4.60;;;3.60;;
12812;SDS011;6471;50.932;6.934;2023-07-22T03:49:31;3.57;;;3.00;;
12812;SDS011;6471;50.932;6.934;2023-07-22T03:51:57;4.13;;;3.20;;
12812;SDS011;6471;50.932;6.934;2023-07-22T03:54:23;3.30;;;2.97;;
12812;SDS011;6471;50.932;6.934;2023-07-22T03:56:49;3.93;;;3.27;;
12812;SDS011;6471;50.932;6.934;2023-07-22T03:59:15;3.87;;;2.90;;
12812;SDS011;6471;50.932;6.934;2023-07-22T04:01:41;3.60;;;2.83;;
12812;SDS011;6471;50.932;6.934;2023-07-22T04:04:08;3.30;;;2.90;;
12812;SDS011;6471;50.932;6.934;2023-07-22T04:06:34;4.00;;;3.00;;
12812;SDS011;6471;50.932;6.934;2023-07-22T04:09:00;4.00;;;2.87;;
12812;SDS011;6471;50.932;6.934;2023-07-22T04:11:26;3.13;;;2.73;;
12812;SDS011;6471;50.932;6.934;2023-07-22T04:13:53;3.50;;;3.07;;
12812;SDS011;6471;50.932;6.934;2023-07-22T04:16:19;3.67;;;2.73;;
12812;SDS011;6471;50.932;6.934;2023-07-22T04:18:45;3.77;;;2.97;;
12812;SDS011;6471;50.932;6.934;2023-07-22T04:21:11;3.40;;;2.93;;
12812;SDS011;6471;50.932;6.934;2023-07-22T04:23:37;3.13;;;2.57;;
12812;SDS011;6471;50.932;6.934;2023-07-22T04:26:03;3.70;;;2.90;;
12812;SDS011;6471;50.932;6.934;2023-07-22T04:28:35;3.50;;;2.87;;
12812;SDS011;6471;50.932;6.934;2023-07-22T04:31:01;3.20;;;2.67;;
12812;SDS011;6471;50.932;6.934;2023-07-22T04:33:27;3.23;;;2.83;;
12812;SDS011;6471;50.932;6.934;2023-07-22T04:35:55;3.27;;;2.70;;
12812;SDS011;6471;50.932;6.934;2023-07-22T04:38:21;3.57;;;2.70;;
12812;SDS011;6471;50.932;6.934;2023-07-22T04:40:47;3.00;;;2.70;;
12812;SDS011;6471;50.932;6.934;2023-07-22T04:43:13;3.33;;;3.03;;
12812;SDS011;6471;50.932;6.934;2023-07-22T04:45:39;3.77;;;2.70;;
12812;SDS011;6471;50.932;6.934;2023-07-22T04:48:05;4.30;;;3.33;;
12812;SDS011;6471;50.932;6.934;2023-07-22T04:50:32;2.87;;;2.40;;
12812;SDS011;6471;50.932;6.934;2023-07-22T04:52:58;2.97;;;2.57;;
12812;SDS011;6471;50.932;6.934;2023-07-22T04:55:24;3.37;;;2.80;;
12812;SDS011;6471;50.932;6.934;2023-07-22T04:57:51;4.33;;;3.17;;
12812;SDS011;6471;50.932;6.934;2023-07-22T05:00:17;3.60;;;3.03;;
12812;SDS011;6471;50.932;6.934;2023-07-22T05:02:44;3.30;;;2.70;;
12812;SDS011;6471;50.932;6.934;2023-07-22T05:05:10;2.80;;;2.50;;
12812;SDS011;6471;50.932;6.934;2023-07-22T05:07:36;3.10;;;2.67;;
12812;SDS011;6471;50.932;6.934;2023-07-22T05:10:03;3.30;;;2.63;;
12812;SDS011;6471;50.932;6.934;2023-07-22T05:12:29;3.40;;;2.73;;
12812;SDS011;6471;50.932;6.934;2023-07-22T05:14:55;3.10;;;2.70;;
12812;SDS011;6471;50.932;6.934;2023-07-22T05:17:21;3.73;;;2.90;;
12812;SDS011;6471;50.932;6.934;2023-07-22T05:19:47;3.30;;;2.90;;
12812;SDS011;6471;50.932;6.934;2023-07-22T05:22:14;3.90;;;3.20;;
12812;SDS011;6471;50.932;6.934;2023-07-22T05:24:40;3.23;;;2.93;;
12812;SDS011;6471;50.932;6.934;2023-07-22T05:27:06;3.97;;;3.13;;
12812;SDS011;6471;50.932;6.934;2023-07-22T05:29:32;3.30;;;3.00;;
12812;SDS011;6471;50.932;6.934;2023-07-22T05:31:58;3.50;;;3.07;;
12812;SDS011;6471;50.932;6.934;2023-07-22T05:34:24;4.47;;;3.97;;
12812;SDS011;6471;50.932;6.934;2023-07-22T05:36:50;4.20;;;3.50;;
12812;SDS011;6471;50.932;6.934;2023-07-22T05:39:16;3.93;;;3.20;;
12812;SDS011;6471;50.932;6.934;2023-07-22T05:41:45;4.30;;;3.40;;
12812;SDS011;6471;50.932;6.934;2023-07-22T05:44:11;6.27;;;3.50;;
12812;SDS011;6471;50.932;6.934;2023-07-22T05:46:37;4.30;;;3.27;;
12812;SDS011;6471;50.932;6.934;2023-07-22T05:49:03;3.90;;;3.03;;
12812;SDS011;6471;50.932;6.934;2023-07-22T05:51:30;4.03;;;3.40;;
12812;SDS011;6471;50.932;6.934;2023-07-22T05:53:56;4.37;;;3.57;;
12812;SDS011;6471;50.932;6.934;2023-07-22T05:56:22;4.50;;;3.70;;
12812;SDS011;6471;50.932;6.934;2023-07-22T05:58:48;5.60;;;4.50;;
12812;SDS011;6471;50.932;6.934;2023-07-22T06:01:14;5.20;;;4.37;;
12812;SDS011;6471;50.932;6.934;2023-07-22T06:03:47;6.23;;;4.47;;
12812;SDS011;6471;50.932;6.934;2023-07-22T06:06:13;5.77;;;4.57;;
12812;SDS011;6471;50.932;6.934;2023-07-22T06:08:39;5.23;;;4.10;;
12812;SDS011;6471;50.932;6.934;2023-07-22T06:11:05;5.03;;;4.23;;
12812;SDS011;6471;50.932;6.934;2023-07-22T06:13:31;4.80;;;4.07;;
12812;SDS011;6471;50.932;6.934;2023-07-22T06:15:57;4.90;;;3.60;;
12812;SDS011;6471;50.932;6.934;2023-07-22T06:18:23;4.83;;;3.97;;
12812;SDS011;6471;50.932;6.934;2023-07-22T06:20:49;5.10;;;3.93;;
12812;SDS011;6471;50.932;6.934;2023-07-22T06:23:15;4.17;;;3.70;;
12812;SDS011;6471;50.932;6.934;2023-07-22T06:25:41;4.40;;;3.63;;
12812;SDS011;6471;50.932;6.934;2023-07-22T06:28:07;3.90;;;3.30;;
12812;SDS011;6471;50.932;6.934;2023-07-22T06:30:33;3.50;;;3.10;;
12812;SDS011;6471;50.932;6.934;2023-07-22T06:32:59;5.33;;;3.23;;
12812;SDS011;6471;50.932;6.934;2023-07-22T06:35:26;4.17;;;3.43;;
12812;SDS011;6471;50.932;6.934;2023-07-22T06:37:52;4.47;;;3.20;;
12812;SDS011;6471;50.932;6.934;2023-07-22T06:40:18;3.53;;;2.97;;
12812;SDS011;6471;50.932;6.934;2023-07-22T06:42:44;6.57;;;5.13;;
12812;SDS011;6471;50.932;6.934;2023-07-22T06:45:10;6.00;;;4.93;;
12812;SDS011;6471;50.932;6.934;2023-07-22T06:47:36;5.50;;;4.47;;
12812;SDS011;6471;50.932;6.934;2023-07-22T06:50:02;4.13;;;3.70;;
12812;SDS011;6471;50.932;6.934;2023-07-22T06:52:31;4.10;;;3.70;;
12812;SDS011;6471;50.932;6.934;2023-07-22T06:54:58;4.77;;;3.90;;
12812;SDS011;6471;50.932;6.934;2023-07-22T06:57:24;4.70;;;3.37;;
12812;SDS011;6471;50.932;6.934;2023-07-22T06:59:53;5.17;;;3.73;;
12812;SDS011;6471;50.932;6.934;2023-07-22T07:02:19;4.13;;;3.10;;
12812;SDS011;6471;50.932;6.934;2023-07-22T07:04:45;3.93;;;3.33;;
12812;SDS011;6471;50.932;6.934;2023-07-22T07:07:12;3.60;;;3.13;;
12812;SDS011;6471;50.932;6.934;2023-07-22T07:09:38;3.43;;;3.10;;
12812;SDS011;6471;50.932;6.934;2023-07-22T07:12:05;3.13;;;2.63;;
12812;SDS011;6471;50.932;6.934;2023-07-22T07:14:32;3.43;;;3.10;;
12812;SDS011;6471;50.932;6.934;2023-07-22T07:16:59;4.03;;;3.03;;
12812;SDS011;6471;50.932;6.934;2023-07-22T07:19:25;4.00;;;2.97;;
12812;SDS011;6471;50.932;6.934;2023-07-22T07:21:51;4.27;;;3.33;;
12812;SDS011;6471;50.932;6.934;2023-07-22T07:24:17;3.90;;;3.17;;
12812;SDS011;6471;50.932;6.934;2023-07-22T07:26:44;3.60;;;3.23;;
12812;SDS011;6471;50.932;6.934;2023-07-22T07:29:11;3.70;;;2.93;;
12812;SDS011;6471;50.932;6.934;2023-07-22T07:31:37;4.90;;;4.00;;
12812;SDS011;6471;50.932;6.934;2023-07-22T07:34:03;4.43;;;3.80;;
12812;SDS011;6471;50.932;6.934;2023-07-22T07:36:29;4.90;;;3.77;;
12812;SDS011;6471;50.932;6.934;2023-07-22T07:38:56;4.53;;;3.80;;
12812;SDS011;6471;50.932;6.934;2023-07-22T07:41:22;5.43;;;3.70;;
12812;SDS011;6471;50.932;6.934;2023-07-22T07:43:48;5.00;;;4.20;;
12812;SDS011;6471;50.932;6.934;2023-07-22T07:46:15;3.97;;;3.57;;
12812;SDS011;6471;50.932;6.934;2023-07-22T07:48:43;4.07;;;3.50;;
12812;SDS011;6471;50.932;6.934;2023-07-22T07:51:09;4.03;;;3.63;;
12812;SDS011;6471;50.932;6.934;2023-07-22T07:53:35;4.03;;;3.40;;
12812;SDS011;6471;50.932;6.934;2023-07-22T07:56:01;4.37;;;3.40;;
12812;SDS011;6471;50.932;6.934;2023-07-22T07:58:27;3.87;;;3.20;;
12812;SDS011;6471;50.932;6.934;2023-07-22T08:00:54;3.70;;;3.30;;
12812;SDS011;6471;50.932;6.934;2023-07-22T08:03:20;3.97;;;3.13;;
12812;SDS011;6471;50.932;6.934;2023-07-22T08:05:46;3.97;;;3.53;;
12812;SDS011;6471;50.932;6.934;2023-07-22T08:08:12;3.57;;;3.27;;
12812;SDS011;6471;50.932;6.934;2023-07-22T08:10:38;5.23;;;3.67;;
12812;SDS011;6471;50.932;6.934;2023-07-22T08:13:04;3.47;;;3.17;;
12812;SDS011;6471;50.932;6.934;2023-07-22T08:15:30;4.10;;;3.30;;
12812;SDS011;6471;50.932;6.934;2023-07-22T08:17:56;4.60;;;3.73;;
12812;SDS011;6471;50.932;6.934;2023-07-22T08:20:22;4.17;;;3.33;;
12812;SDS011;6471;50.932;6.934;2023-07-22T08:22:48;4.73;;;3.90;;
12812;SDS011;6471;50.932;6.934;2023-07-22T08:25:14;5.63;;;3.70;;
12812;SDS011;6471;50.932;6.934;2023-07-22T08:27:40;4.30;;;3.75;;
12812;SDS011;6471;50.932;6.934;2023-07-22T08:30:06;4.18;;;3.30;;
12812;SDS011;6471;50.932;6.934;2023-07-22T08:32:33;3.83;;;3.25;;
12812;SDS011;6471;50.932;6.934;2023-07-22T08:34:59;4.07;;;3.53;;
12812;SDS011;6471;50.932;6.934;2023-07-22T08:37:25;4.63;;;3.97;;
12812;SDS011;6471;50.932;6.934;2023-07-22T08:39:51;4.32;;;3.50;;
12812;SDS011;6471;50.932;6.934;2023-07-22T08:42:18;4.63;;;4.00;;
12812;SDS011;6471;50.932;6.934;2023-07-22T08:44:48;3.78;;;3.30;;
12812;SDS011;6471;50.932;6.934;2023-07-22T08:47:17;4.30;;;3.60;;
12812;SDS011;6471;50.932;6.934;2023-07-22T08:49:46;3.42;;;3.13;;
12812;SDS011;6471;50.932;6.934;2023-07-22T08:52:16;3.20;;;2.90;;
12812;SDS011;6471;50.932;6.934;2023-07-22T08:54:43;3.60;;;3.30;;
12812;SDS011;6471;50.932;6.934;2023-07-22T08:57:11;3.10;;;2.80;;
12812;SDS011;6471;50.932;6.934;2023-07-22T08:59:37;3.67;;;3.03;;
12812;SDS011;6471;50.932;6.934;2023-07-22T09:02:03;3.35;;;3.05;;
12812;SDS011;6471;50.932;6.934;2023-07-22T09:04:30;3.53;;;3.13;;
12812;SDS011;6471;50.932;6.934;2023-07-22T09:06:56;3.47;;;3.10;;
12812;SDS011;6471;50.932;6.934;2023-07-22T09:09:25;3.60;;;2.90;;
12812;SDS011;6471;50.932;6.934;2023-07-22T09:11:51;3.33;;;3.03;;
12812;SDS011;6471;50.932;6.934;2023-07-22T09:14:19;3.40;;;3.10;;
12812;SDS011;6471;50.932;6.934;2023-07-22T09:16:45;3.85;;;3.08;;
12812;SDS011;6471;50.932;6.934;2023-07-22T09:19:11;3.63;;;3.20;;
12812;SDS011;6471;50.932;6.934;2023-07-22T09:21:37;4.22;;;3.47;;
12812;SDS011;6471;50.932;6.934;2023-07-22T09:24:19;4.40;;;3.75;;
12812;SDS011;6471;50.932;6.934;2023-07-22T09:26:45;3.90;;;3.50;;
12812;SDS011;6471;50.932;6.934;2023-07-22T09:29:11;3.53;;;3.23;;
12812;SDS011;6471;50.932;6.934;2023-07-22T09:31:48;4.50;;;3.60;;
12812;SDS011;6471;50.932;6.934;2023-07-22T09:34:14;4.47;;;3.73;;
12812;SDS011;6471;50.932;6.934;2023-07-22T09:36:53;5.87;;;4.30;;
12812;SDS011;6471;50.932;6.934;2023-07-22T09:39:19;5.40;;;3.57;;
12812;SDS011;6471;50.932;6.934;2023-07-22T09:41:46;3.33;;;3.00;;
12812;SDS011;6471;50.932;6.934;2023-07-22T09:44:12;3.20;;;2.80;;
12812;SDS011;6471;50.932;6.934;2023-07-22T09:46:42;3.13;;;2.63;;
12812;SDS011;6471;50.932;6.934;2023-07-22T09:49:12;3.30;;;3.00;;
12812;SDS011;6471;50.932;6.934;2023-07-22T09:51:39;3.50;;;2.97;;
12812;SDS011;6471;50.932;6.934;2023-07-22T09:54:06;3.77;;;3.00;;
12812;SDS011;6471;50.932;6.934;2023-07-22T09:56:33;3.43;;;2.90;;
12812;SDS011;6471;50.932;6.934;2023-07-22T09:59:08;3.80;;;3.03;;
12812;SDS011;6471;50.932;6.934;2023-07-22T10:01:37;3.33;;;2.90;;
12812;SDS011;6471;50.932;6.934;2023-07-22T10:04:04;4.00;;;2.90;;
12812;SDS011;6471;50.932;6.934;2023-07-22T10:06:30;3.10;;;2.50;;
12812;SDS011;6471;50.932;6.934;2023-07-22T10:08:56;2.77;;;2.43;;
12812;SDS011;6471;50.932;6.934;2023-07-22T10:11:24;3.47;;;2.40;;
12812;SDS011;6471;50.932;6.934;2023-07-22T10:13:52;2.97;;;2.53;;
12812;SDS011;6471;50.932;6.934;2023-07-22T10:16:19;3.40;;;2.67;;
12812;SDS011;6471;50.932;6.934;2023-07-22T10:18:45;3.00;;;2.30;;
12812;SDS011;6471;50.932;6.934;2023-07-22T10:21:12;3.27;;;2.53;;
12812;SDS011;6471;50.932;6.934;2023-07-22T10:23:39;2.87;;;2.43;;
12812;SDS011;6471;50.932;6.934;2023-07-22T10:26:06;3.23;;;2.57;;
12812;SDS011;6471;50.932;6.934;2023-07-22T10:28:32;3.00;;;2.30;;
12812;SDS011;6471;50.932;6.934;2023-07-22T10:30:58;4.10;;;2.30;;
12812;SDS011;6471;50.932;6.934;2023-07-22T10:33:25;2.50;;;2.30;;
12812;SDS011;6471;50.932;6.934;2023-07-22T10:36:07;3.37;;;2.20;;
12812;SDS011;6471;50.932;6.934;2023-07-22T10:38:34;2.40;;;2.20;;
12812;SDS011;6471;50.932;6.934;2023-07-22T10:41:00;2.80;;;2.30;;
12812;SDS011;6471;50.932;6.934;2023-07-22T10:43:29;2.57;;;2.37;;
12812;SDS011;6471;50.932;6.934;2023-07-22T10:45:56;3.90;;;2.60;;
12812;SDS011;6471;50.932;6.934;2023-07-22T10:48:25;3.23;;;2.47;;
12812;SDS011;6471;50.932;6.934;2023-07-22T10:50:53;2.80;;;2.23;;
12812;SDS011;6471;50.932;6.934;2023-07-22T10:56:04;2.33;;;2.00;;
12812;SDS011;6471;50.932;6.934;2023-07-22T10:58:32;2.27;;;2.00;;
12812;SDS011;6471;50.932;6.934;2023-07-22T11:06:38;2.87;;;2.30;;
12812;SDS011;6471;50.932;6.934;2023-07-22T11:09:07;3.97;;;2.40;;
12812;SDS011;6471;50.932;6.934;2023-07-22T11:11:54;2.60;;;2.30;;
12812;SDS011;6471;50.932;6.934;2023-07-22T11:14:27;2.10;;;1.90;;
12812;SDS011;6471;50.932;6.934;2023-07-22T11:16:54;2.60;;;2.07;;
12812;SDS011;6471;50.932;6.934;2023-07-22T11:19:22;3.27;;;2.20;;
12812;SDS011;6471;50.932;6.934;2023-07-22T11:21:49;3.67;;;2.27;;
12812;SDS011;6471;50.932;6.934;2023-07-22T11:24:16;2.43;;;2.13;;
12812;SDS011;6471;50.932;6.934;2023-07-22T11:26:42;2.93;;;2.50;;
12812;SDS011;6471;50.932;6.934;2023-07-22T11:29:08;2.60;;;2.33;;
12812;SDS011;6471;50.932;6.934;2023-07-22T11:31:35;2.57;;;2.23;;
12812;SDS011;6471;50.932;6.934;2023-07-22T11:34:05;2.40;;;2.20;;
12812;SDS011;6471;50.932;6.934;2023-07-22T11:36:31;2.47;;;2.00;;
12812;SDS011;6471;50.932;6.934;2023-07-22T11:39:01;2.33;;;2.10;;
12812;SDS011;6471;50.932;6.934;2023-07-22T11:41:27;2.37;;;2.07;;
12812;SDS011;6471;50.932;6.934;2023-07-22T11:43:53;2.53;;;2.00;;
12812;SDS011;6471;50.932;6.934;2023-07-22T11:46:19;2.60;;;2.10;;
12812;SDS011;6471;50.932;6.934;2023-07-22T11:48:49;4.23;;;2.10;;
12812;SDS011;6471;50.932;6.934;2023-07-22T11:51:16;7.97;;;6.37;;
12812;SDS011;6471;50.932;6.934;2023-07-22T11:53:43;4.10;;;3.23;;
12812;SDS011;6471;50.932;6.934;2023-07-22T11:56:09;3.10;;;2.53;;
12812;SDS011;6471;50.932;6.934;2023-07-22T11:58:35;2.77;;;2.20;;
12812;SDS011;6471;50.932;6.934;2023-07-22T12:01:02;2.90;;;2.10;;
12812;SDS011;6471;50.932;6.934;2023-07-22T12:03:34;2.50;;;2.30;;
12812;SDS011;6471;50.932;6.934;2023-07-22T12:06:01;3.97;;;2.30;;
12812;SDS011;6471;50.932;6.934;2023-07-22T12:08:28;3.07;;;2.20;;
12812;SDS011;6471;50.932;6.934;2023-07-22T12:10:57;2.83;;;2.20;;
12812;SDS011;6471;50.932;6.934;2023-07-22T12:13:23;2.88;;;2.30;;
12812;SDS011;6471;50.932;6.934;2023-07-22T12:16:00;2.70;;;2.10;;
12812;SDS011;6471;50.932;6.934;2023-07-22T12:18:26;2.80;;;1.90;;
12812;SDS011;6471;50.932;6.934;2023-07-22T12:20:52;2.07;;;1.83;;
12812;SDS011;6471;50.932;6.934;2023-07-22T12:23:18;2.38;;;1.90;;
12812;SDS011;6471;50.932;6.934;2023-07-22T12:25:46;2.97;;;1.83;;
12812;SDS011;6471;50.932;6.934;2023-07-22T12:28:12;2.30;;;2.10;;
12812;SDS011;6471;50.932;6.934;2023-07-22T12:30:38;3.58;;;2.55;;
12812;SDS011;6471;50.932;6.934;2023-07-22T12:33:04;4.20;;;2.07;;
12812;SDS011;6471;50.932;6.934;2023-07-22T12:35:30;2.40;;;1.90;;
12812;SDS011;6471;50.932;6.934;2023-07-22T12:37:56;3.90;;;2.20;;
12812;SDS011;6471;50.932;6.934;2023-07-22T12:40:22;2.45;;;2.00;;
12812;SDS011;6471;50.932;6.934;2023-07-22T12:42:48;1.70;;;1.60;;
12812;SDS011;6471;50.932;6.934;2023-07-22T12:45:14;1.80;;;1.70;;
12812;SDS011;6471;50.932;6.934;2023-07-22T12:47:40;2.47;;;1.98;;
12812;SDS011;6471;50.932;6.934;2023-07-22T12:50:07;3.93;;;2.47;;
12812;SDS011;6471;50.932;6.934;2023-07-22T12:52:33;3.80;;;2.20;;
12812;SDS011;6471;50.932;6.934;2023-07-22T12:54:59;2.13;;;1.83;;
12812;SDS011;6471;50.932;6.934;2023-07-22T12:57:25;2.80;;;2.23;;
12812;SDS011;6471;50.932;6.934;2023-07-22T12:59:51;3.38;;;2.47;;
12812;SDS011;6471;50.932;6.934;2023-07-22T13:02:17;2.45;;;2.13;;
12812;SDS011;6471;50.932;6.934;2023-07-22T13:04:43;2.77;;;2.10;;
12812;SDS011;6471;50.932;6.934;2023-07-22T13:07:10;3.75;;;2.60;;
12812;SDS011;6471;50.932;6.934;2023-07-22T13:09:36;2.35;;;2.08;;
12812;SDS011;6471;50.932;6.934;2023-07-22T13:12:02;2.50;;;2.30;;
12812;SDS011;6471;50.932;6.934;2023-07-22T13:14:28;2.40;;;1.97;;
12812;SDS011;6471;50.932;6.934;2023-07-22T13:16:54;3.83;;;2.43;;
12812;SDS011;6471;50.932;6.934;2023-07-22T13:19:20;2.50;;;2.00;;
12812;SDS011;6471;50.932;6.934;2023-07-22T13:21:46;2.50;;;2.20;;
12812;SDS011;6471;50.932;6.934;2023-07-22T13:24:12;3.60;;;2.30;;
12812;SDS011;6471;50.932;6.934;2023-07-22T13:26:39;2.73;;;2.40;;
12812;SDS011;6471;50.932;6.934;2023-07-22T13:29:05;2.40;;;2.20;;
12812;SDS011;6471;50.932;6.934;2023-07-22T13:31:31;4.43;;;2.53;;
12812;SDS011;6471;50.932;6.934;2023-07-22T13:33:57;2.87;;;2.37;;
12812;SDS011;6471;50.932;6.934;2023-07-22T13:36:23;2.83;;;2.07;;
12812;SDS011;6471;50.932;6.934;2023-07-22T13:38:49;2.60;;;2.20;;
12812;SDS011;6471;50.932;6.934;2023-07-22T13:41:15;2.60;;;2.13;;
12812;SDS011;6471;50.932;6.934;2023-07-22T13:43:41;2.63;;;2.30;;
12812;SDS011;6471;50.932;6.934;2023-07-22T13:46:07;2.53;;;2.30;;
12812;SDS011;6471;50.932;6.934;2023-07-22T13:48:33;3.20;;;2.53;;
12812;SDS011;6471;50.932;6.934;2023-07-22T13:50:59;2.90;;;2.60;;
12812;SDS011;6471;50.932;6.934;2023-07-22T13:53:25;3.17;;;2.40;;
12812;SDS011;6471;50.932;6.934;2023-07-22T13:55:51;2.60;;;2.40;;
12812;SDS011;6471;50.932;6.934;2023-07-22T13:58:17;3.60;;;2.40;;
12812;SDS011;6471;50.932;6.934;2023-07-22T14:00:43;2.42;;;2.20;;
12812;SDS011;6471;50.932;6.934;2023-07-22T14:03:09;2.22;;;2.03;;
12812;SDS011;6471;50.932;6.934;2023-07-22T14:05:35;4.70;;;2.03;;
12812;SDS011;6471;50.932;6.934;2023-07-22T14:08:01;3.43;;;2.30;;
12812;SDS011;6471;50.932;6.934;2023-07-22T14:10:27;2.20;;;2.00;;
12812;SDS011;6471;50.932;6.934;2023-07-22T14:12:53;2.75;;;2.20;;
12812;SDS011;6471;50.932;6.934;2023-07-22T14:15:19;3.63;;;2.40;;
12812;SDS011;6471;50.932;6.934;2023-07-22T14:17:45;3.00;;;2.70;;
12812;SDS011;6471;50.932;6.934;2023-07-22T14:20:11;3.42;;;2.65;;
12812;SDS011;6471;50.932;6.934;2023-07-22T14:22:39;3.10;;;2.50;;
12812;SDS011;6471;50.932;6.934;2023-07-22T14:25:05;2.97;;;2.50;;
12812;SDS011;6471;50.932;6.934;2023-07-22T14:27:31;3.28;;;2.58;;
12812;SDS011;6471;50.932;6.934;2023-07-22T14:29:57;4.93;;;3.05;;
12812;SDS011;6471;50.932;6.934;2023-07-22T14:32:23;3.13;;;2.63;;
12812;SDS011;6471;50.932;6.934;2023-07-22T14:34:49;4.32;;;2.80;;
12812;SDS011;6471;50.932;6.934;2023-07-22T14:37:15;3.40;;;2.70;;
12812;SDS011;6471;50.932;6.934;2023-07-22T14:39:41;4.10;;;2.95;;
12812;SDS011;6471;50.932;6.934;2023-07-22T14:42:07;3.15;;;2.63;;
12812;SDS011;6471;50.932;6.934;2023-07-22T14:44:33;3.42;;;2.92;;
12812;SDS011;6471;50.932;6.934;2023-07-22T14:46:59;3.78;;;2.92;;
12812;SDS011;6471;50.932;6.934;2023-07-22T14:49:25;3.25;;;2.78;;
12812;SDS011;6471;50.932;6.934;2023-07-22T14:51:51;3.03;;;2.70;;
12812;SDS011;6471;50.932;6.934;2023-07-22T14:54:18;2.80;;;2.47;;
12812;SDS011;6471;50.932;6.934;2023-07-22T14:56:44;3.00;;;2.70;;
12812;SDS011;6471;50.932;6.934;2023-07-22T14:59:11;4.20;;;3.10;;
12812;SDS011;6471;50.932;6.934;2023-07-22T15:01:37;3.50;;;2.88;;
12812;SDS011;6471;50.932;6.934;2023-07-22T15:04:04;3.22;;;2.85;;
12812;SDS011;6471;50.932;6.934;2023-07-22T15:06:30;3.97;;;2.97;;